createdAt,value
2023-05-01T00:01:36.319Z,56.71
2023-05-01T00:04:04.855Z,56.77
2023-05-01T00:06:33.663Z,56.60
2023-05-01T00:09:02.219Z,56.58
2023-05-01T00:11:30.368Z,56.58
2023-05-01T00:14:00.130Z,56.36
2023-05-01T00:16:28.440Z,56.34
2023-05-01T00:18:56.774Z,56.62
2023-05-01T00:21:25.593Z,56.92
2023-05-01T00:23:57.810Z,57.06
2023-05-01T00:26:30.565Z,57.08
2023-05-01T00:29:00.737Z,57.04
2023-05-01T00:31:30.016Z,57.25
2023-05-01T00:33:58.557Z,57.09
2023-05-01T00:36:26.978Z,57.19
2023-05-01T00:38:57.460Z,57.17
2023-05-01T00:41:26.074Z,57.20
2023-05-01T00:43:54.320Z,57.42
2023-05-01T00:46:27.612Z,57.16
2023-05-01T00:48:56.217Z,57.17
2023-05-01T00:51:24.869Z,57.09
2023-05-01T00:53:54.064Z,57.42
2023-05-01T00:56:24.028Z,57.46
2023-05-01T00:58:53.819Z,57.58
2023-05-01T01:01:25.506Z,57.43
2023-05-01T01:03:54.774Z,57.23
2023-05-01T01:06:31.783Z,57.00
2023-05-01T01:09:13.641Z,57.44
2023-05-01T01:11:53.585Z,57.34
2023-05-01T01:14:27.144Z,57.46
2023-05-01T01:17:05.064Z,56.99
2023-05-01T01:20:06.654Z,57.31
2023-05-01T01:22:39.842Z,57.10
2023-05-01T01:25:52.252Z,57.63
2023-05-01T01:28:46.954Z,57.54
2023-05-01T01:31:24.896Z,57.76
2023-05-01T01:34:04.318Z,57.69
2023-05-01T01:36:48.186Z,57.68
2023-05-01T01:39:26.221Z,57.66
2023-05-01T01:41:56.128Z,57.47
2023-05-01T01:44:30.661Z,57.70
2023-05-01T01:47:01.203Z,57.63
2023-05-01T01:49:34.084Z,57.82
2023-05-01T01:52:04.311Z,58.38
2023-05-01T01:54:37.144Z,58.64
2023-05-01T01:57:09.043Z,58.52
2023-05-01T01:59:37.234Z,58.60
2023-05-01T02:02:07.176Z,58.75
2023-05-01T02:04:38.810Z,58.69
2023-05-01T02:07:09.949Z,58.67
2023-05-01T02:09:39.979Z,58.72
2023-05-01T02:12:09.553Z,58.30
2023-05-01T02:14:39.266Z,58.26
2023-05-01T02:17:08.569Z,58.13
2023-05-01T02:19:40.398Z,58.24
2023-05-01T02:22:09.021Z,58.46
2023-05-01T02:24:40.153Z,58.19
2023-05-01T02:27:18.155Z,58.16
2023-05-01T02:29:47.020Z,58.16
2023-05-01T02:32:15.640Z,58.19
2023-05-01T02:34:45.756Z,58.44
2023-05-01T02:37:14.467Z,58.07
2023-05-01T02:39:43.233Z,58.25
2023-05-01T02:42:13.382Z,58.20
2023-05-01T02:44:47.030Z,58.19
2023-05-01T02:47:19.746Z,58.20
2023-05-01T02:49:51.805Z,58.30
2023-05-01T02:52:22.153Z,57.94
2023-05-01T02:54:51.416Z,58.38
2023-05-01T02:57:20.794Z,58.19
2023-05-01T02:59:49.325Z,58.10
2023-05-01T03:02:17.670Z,58.13
2023-05-01T03:04:46.191Z,58.46
2023-05-01T03:07:15.850Z,58.21
2023-05-01T03:09:45.069Z,58.21
2023-05-01T03:12:13.424Z,58.34
2023-05-01T03:14:43.888Z,58.41
2023-05-01T03:17:13.652Z,58.25
2023-05-01T03:19:43.084Z,58.20
2023-05-01T03:22:11.528Z,58.13
2023-05-01T03:24:41.619Z,58.00
2023-05-01T03:27:09.975Z,58.05
2023-05-01T03:29:38.248Z,58.02
2023-05-01T03:32:07.434Z,57.87
2023-05-01T03:34:36.023Z,57.67
2023-05-01T03:37:04.283Z,57.90
2023-05-01T03:39:33.624Z,57.75
2023-05-01T03:42:03.720Z,57.96
2023-05-01T03:44:32.871Z,57.60
2023-05-01T03:47:01.087Z,57.84
2023-05-01T03:49:29.979Z,57.83
2023-05-01T03:51:58.083Z,58.05
2023-05-01T03:54:26.482Z,57.91
2023-05-01T03:56:54.670Z,58.06
2023-05-01T03:59:25.197Z,57.95
2023-05-01T04:01:55.881Z,57.89
2023-05-01T04:04:25.189Z,57.87
2023-05-01T04:06:54.608Z,57.93
2023-05-01T04:09:23.473Z,57.92
2023-05-01T04:11:52.145Z,57.67
2023-05-01T04:14:20.405Z,57.70
2023-05-01T04:16:51.424Z,57.79
2023-05-01T04:19:19.633Z,57.63
2023-05-01T04:21:48.934Z,57.82
2023-05-01T04:24:17.932Z,57.79
2023-05-01T04:26:46.301Z,57.62
2023-05-01T04:29:14.378Z,57.75
2023-05-01T04:31:43.445Z,57.72
2023-05-01T04:34:13.284Z,57.72
2023-05-01T04:36:41.533Z,57.47
2023-05-01T04:39:09.833Z,57.61
2023-05-01T04:41:38.546Z,57.62
2023-05-01T04:44:07.338Z,57.42
2023-05-01T04:46:35.976Z,57.47
2023-05-01T04:49:04.445Z,57.33
2023-05-01T04:51:34.289Z,57.26
2023-05-01T04:54:02.938Z,57.24
2023-05-01T04:56:32.389Z,57.13
2023-05-01T04:59:01.450Z,57.07
2023-05-01T05:01:30.012Z,57.25
2023-05-01T05:03:58.522Z,57.17
2023-05-01T05:06:27.069Z,57.63
2023-05-01T05:08:58.027Z,57.67
2023-05-01T05:11:26.613Z,57.66
2023-05-01T05:13:54.863Z,57.76
2023-05-01T05:16:23.239Z,57.78
2023-05-01T05:18:51.694Z,57.65
2023-05-01T05:21:19.900Z,57.52
2023-05-01T05:23:48.297Z,57.76
2023-05-01T05:26:18.049Z,57.60
2023-05-01T05:28:47.179Z,57.51
2023-05-01T05:31:16.580Z,57.72
2023-05-01T05:33:44.826Z,57.54
2023-05-01T05:36:12.934Z,57.44
2023-05-01T05:38:41.197Z,57.32
2023-05-01T05:41:10.503Z,57.59
2023-05-01T05:43:40.674Z,57.75
2023-05-01T05:46:09.787Z,57.77
2023-05-01T05:48:37.852Z,58.04
2023-05-01T05:51:06.260Z,57.99
2023-05-01T05:53:35.005Z,57.99
2023-05-01T05:56:03.098Z,58.23
2023-05-01T05:58:31.418Z,58.04
2023-05-01T06:01:01.173Z,58.07
2023-05-01T06:03:29.527Z,57.81
2023-05-01T06:05:57.863Z,57.71
2023-05-01T06:08:26.085Z,57.78
2023-05-01T06:10:54.294Z,57.64
2023-05-01T06:13:22.652Z,57.99
2023-05-01T06:15:51.056Z,57.78
2023-05-01T06:18:21.648Z,57.50
2023-05-01T06:20:49.977Z,57.64
2023-05-01T06:23:18.066Z,57.47
2023-05-01T06:25:47.116Z,57.50
2023-05-01T06:28:15.272Z,57.44
2023-05-01T06:30:43.446Z,57.47
2023-05-01T06:33:11.858Z,57.30
2023-05-01T06:35:42.684Z,57.18
2023-05-01T06:38:11.231Z,57.08
2023-05-01T06:40:39.455Z,56.97
2023-05-01T06:43:07.534Z,57.02
2023-05-01T06:45:36.080Z,56.47
2023-05-01T06:48:04.225Z,56.81
2023-05-01T06:50:32.706Z,56.71
2023-05-01T06:53:02.910Z,56.95
2023-05-01T06:55:33.732Z,56.61
2023-05-01T06:58:07.025Z,56.35
2023-05-01T07:00:45.376Z,56.34
2023-05-01T07:03:13.867Z,56.00
2023-05-01T07:05:42.109Z,55.83
2023-05-01T07:08:13.228Z,55.67
2023-05-01T07:10:42.333Z,55.58
2023-05-01T07:13:10.782Z,55.46
2023-05-01T07:15:38.963Z,55.69
2023-05-01T07:18:07.277Z,55.60
2023-05-01T07:20:35.768Z,55.52
2023-05-01T07:23:07.300Z,55.74
2023-05-01T07:25:38.576Z,55.40
2023-05-01T07:28:08.258Z,55.24
2023-05-01T07:30:37.551Z,55.17
2023-05-01T07:33:07.279Z,55.22
2023-05-01T07:35:35.609Z,55.52
2023-05-01T07:38:04.638Z,55.41
2023-05-01T07:40:34.315Z,55.28
2023-05-01T07:43:04.391Z,55.50
2023-05-01T07:45:32.846Z,55.67
2023-05-01T07:48:01.101Z,55.54
2023-05-01T07:50:29.781Z,55.23
2023-05-01T07:52:58.236Z,55.29
2023-05-01T07:55:26.716Z,55.30
2023-05-01T07:57:54.939Z,55.05
2023-05-01T08:00:25.095Z,55.03
2023-05-01T08:02:53.611Z,55.31
2023-05-01T08:05:22.010Z,54.83
2023-05-01T08:07:50.071Z,54.54
2023-05-01T08:10:18.380Z,54.29
2023-05-01T08:12:46.600Z,54.07
2023-05-01T08:15:15.713Z,53.92
2023-05-01T08:17:47.436Z,53.74
2023-05-01T08:20:15.684Z,53.29
2023-05-01T08:22:44.113Z,53.20
2023-05-01T08:25:12.109Z,52.98
2023-05-01T08:27:40.366Z,52.86
2023-05-01T08:30:09.473Z,52.79
2023-05-01T08:32:37.682Z,53.00
2023-05-01T08:35:08.053Z,52.63
2023-05-01T08:37:36.423Z,52.51
2023-05-01T08:40:08.946Z,52.74
2023-05-01T08:42:39.072Z,52.76
2023-05-01T08:45:09.135Z,52.64
2023-05-01T08:47:38.600Z,52.42
2023-05-01T08:50:11.492Z,52.88
2023-05-01T08:52:43.288Z,53.00
2023-05-01T08:55:14.108Z,53.21
2023-05-01T08:57:46.817Z,52.57
2023-05-01T09:00:20.939Z,52.40
2023-05-01T09:02:50.741Z,52.75
2023-05-01T09:05:21.715Z,53.12
2023-05-01T09:07:50.140Z,52.51
2023-05-01T09:10:19.552Z,52.22
2023-05-01T09:12:53.401Z,51.87
2023-05-01T09:15:22.564Z,51.64
2023-05-01T09:17:50.871Z,51.81
2023-05-01T09:20:21.152Z,51.78
2023-05-01T09:22:49.486Z,52.09
2023-05-01T09:25:18.372Z,51.31
2023-05-01T09:27:47.046Z,51.69
2023-05-01T09:30:33.876Z,51.66
2023-05-01T09:33:12.863Z,51.69
2023-05-01T09:35:53.696Z,51.55
2023-05-01T09:38:23.291Z,51.50
2023-05-01T09:40:51.822Z,51.39
2023-05-01T09:43:27.832Z,51.47
2023-05-01T09:46:05.088Z,51.21
2023-05-01T09:48:35.734Z,50.85
2023-05-01T09:51:22.341Z,50.12
2023-05-01T09:53:51.431Z,50.49
2023-05-01T09:56:20.456Z,50.44
2023-05-01T09:58:48.885Z,50.40
2023-05-01T10:01:17.939Z,50.89
2023-05-01T10:03:47.326Z,51.13
2023-05-01T10:06:29.972Z,51.57
2023-05-01T10:08:58.179Z,51.57
2023-05-01T10:11:28.513Z,51.54
2023-05-01T10:14:09.903Z,51.28
2023-05-01T10:16:39.122Z,51.22
2023-05-01T10:19:07.922Z,51.06
2023-05-01T10:21:37.969Z,51.25
2023-05-01T10:24:08.482Z,51.17
2023-05-01T10:26:37.169Z,50.81
2023-05-01T10:29:06.036Z,51.13
2023-05-01T10:31:35.961Z,51.37
2023-05-01T10:34:04.926Z,50.89
2023-05-01T10:36:39.333Z,50.81
2023-05-01T10:39:08.383Z,51.32
2023-05-01T10:42:05.010Z,50.73
2023-05-01T10:44:35.170Z,50.47
2023-05-01T10:47:41.664Z,50.95
2023-05-01T10:50:11.263Z,51.12
2023-05-01T10:53:16.528Z,51.24
2023-05-01T10:55:47.749Z,51.21
2023-05-01T10:58:54.034Z,51.91
2023-05-01T11:01:36.337Z,51.93
2023-05-01T11:04:08.055Z,51.80
2023-05-01T11:06:37.967Z,52.07
2023-05-01T11:09:37.284Z,52.22
2023-05-01T11:12:07.532Z,52.53
2023-05-01T11:15:05.544Z,52.10
2023-05-01T11:17:50.713Z,52.22
2023-05-01T11:20:52.198Z,52.47
2023-05-01T11:23:25.978Z,52.00
2023-05-01T11:26:06.378Z,52.01
2023-05-01T11:28:37.086Z,52.12
2023-05-01T11:31:05.605Z,52.06
2023-05-01T11:33:34.892Z,51.96
2023-05-01T11:36:05.283Z,52.09
2023-05-01T11:38:33.260Z,51.90
2023-05-01T11:41:05.459Z,51.56
2023-05-01T11:43:35.292Z,51.34
2023-05-01T11:46:04.211Z,51.10
2023-05-01T11:48:33.120Z,50.63
2023-05-01T11:51:01.523Z,50.48
2023-05-01T11:53:30.312Z,50.02
2023-05-01T11:55:59.766Z,49.86
2023-05-01T11:58:36.670Z,50.17
2023-05-01T12:01:07.475Z,50.34
2023-05-01T12:03:45.649Z,50.59
2023-05-01T12:06:15.341Z,50.70
2023-05-01T12:08:46.080Z,50.18
2023-05-01T12:11:14.644Z,50.21
2023-05-01T12:13:44.391Z,50.17
2023-05-01T12:16:12.760Z,50.42
2023-05-01T12:18:41.323Z,50.78
2023-05-01T12:21:17.960Z,50.24
2023-05-01T12:23:46.325Z,49.74
2023-05-01T12:26:18.848Z,49.08
2023-05-01T12:29:03.648Z,48.70
2023-05-01T12:31:32.649Z,47.98
2023-05-01T12:34:02.720Z,48.18
2023-05-01T12:36:32.338Z,48.24
2023-05-01T12:39:02.449Z,48.08
2023-05-01T12:41:35.653Z,48.46
2023-05-01T12:44:16.845Z,48.29
2023-05-01T12:46:47.654Z,48.16
2023-05-01T12:49:19.716Z,47.45
2023-05-01T12:51:49.856Z,47.13
2023-05-01T12:54:22.434Z,46.08
2023-05-01T12:56:51.687Z,45.84
2023-05-01T12:59:26.552Z,45.80
2023-05-01T13:02:04.672Z,45.71
2023-05-01T13:04:33.528Z,45.98
2023-05-01T13:07:02.153Z,45.51
2023-05-01T13:09:32.479Z,46.67
2023-05-01T13:12:02.754Z,48.16
2023-05-01T13:14:38.134Z,46.22
2023-05-01T13:17:09.268Z,45.37
2023-05-01T13:19:38.611Z,43.56
2023-05-01T13:22:07.324Z,42.87
2023-05-01T13:24:40.419Z,42.88
2023-05-01T13:27:10.368Z,43.37
2023-05-01T13:29:41.898Z,46.02
2023-05-01T13:32:12.673Z,43.73
2023-05-01T13:34:44.794Z,41.71
2023-05-01T13:37:13.982Z,42.81
2023-05-01T13:39:43.181Z,41.68
2023-05-01T13:42:13.266Z,41.20
2023-05-01T13:44:47.974Z,41.02
2023-05-01T13:47:18.763Z,40.70
2023-05-01T13:49:48.968Z,39.29
2023-05-01T13:52:19.141Z,39.17
2023-05-01T13:54:48.925Z,40.16
2023-05-01T13:57:17.552Z,40.38
2023-05-01T13:59:48.739Z,41.33
2023-05-01T14:02:22.167Z,40.77
2023-05-01T14:04:51.050Z,39.15
2023-05-01T14:07:20.272Z,37.98
2023-05-01T14:09:54.070Z,38.52
2023-05-01T14:12:25.848Z,38.92
2023-05-01T14:14:55.504Z,37.38
2023-05-01T14:17:29.212Z,36.34
2023-05-01T14:19:57.527Z,36.41
2023-05-01T14:22:26.996Z,35.66
2023-05-01T14:24:55.053Z,35.67
2023-05-01T14:27:23.817Z,35.15
2023-05-01T14:29:52.379Z,33.75
2023-05-01T14:32:22.749Z,32.45
2023-05-01T14:34:50.981Z,32.71
2023-05-01T14:37:19.307Z,33.20
2023-05-01T14:39:47.504Z,32.58
2023-05-01T14:42:16.285Z,33.02
2023-05-01T14:44:44.604Z,32.40
2023-05-01T14:47:19.646Z,32.05
2023-05-01T14:49:53.457Z,32.53
2023-05-01T14:52:21.550Z,33.55
2023-05-01T14:54:49.953Z,33.94
2023-05-01T14:57:18.093Z,35.09
2023-05-01T14:59:46.455Z,34.41
2023-05-01T15:02:14.851Z,35.30
2023-05-01T15:04:44.905Z,34.81
2023-05-01T15:07:14.930Z,34.91
2023-05-01T15:09:43.293Z,36.30
2023-05-01T15:12:11.589Z,38.45
2023-05-01T15:14:39.725Z,38.88
2023-05-01T15:17:08.128Z,37.83
2023-05-01T15:19:36.537Z,38.83
2023-05-01T15:22:05.520Z,40.21
2023-05-01T15:24:35.557Z,40.16
2023-05-01T15:27:04.260Z,39.11
2023-05-01T15:29:33.741Z,37.19
2023-05-01T15:32:11.854Z,35.92
2023-05-01T15:34:41.809Z,34.59
2023-05-01T15:37:10.196Z,35.13
2023-05-01T15:39:40.582Z,36.94
2023-05-01T15:42:08.900Z,38.19
2023-05-01T15:44:37.068Z,39.84
2023-05-01T15:47:05.197Z,40.60
2023-05-01T15:49:33.526Z,39.68
2023-05-01T15:52:01.664Z,38.71
2023-05-01T15:54:30.054Z,38.13
2023-05-01T15:57:01.605Z,36.90
2023-05-01T15:59:29.940Z,35.68
2023-05-01T16:01:58.401Z,34.38
2023-05-01T16:04:26.725Z,33.18
2023-05-01T16:06:54.944Z,32.95
2023-05-01T16:09:29.671Z,32.71
2023-05-01T16:11:59.741Z,34.41
2023-05-01T16:14:29.369Z,35.16
2023-05-01T16:16:57.720Z,35.35
2023-05-01T16:19:25.853Z,34.57
2023-05-01T16:21:54.277Z,34.29
2023-05-01T16:24:22.617Z,34.70
2023-05-01T16:26:50.839Z,35.64
2023-05-01T16:29:21.773Z,36.13
2023-05-01T16:31:50.059Z,37.23
2023-05-01T16:34:22.333Z,38.58
2023-05-01T16:36:50.673Z,40.04
2023-05-01T16:39:22.060Z,41.18
2023-05-01T16:41:51.862Z,42.35
2023-05-01T16:44:23.662Z,43.11
2023-05-01T16:46:55.567Z,43.90
2023-05-01T16:49:25.103Z,43.95
2023-05-01T16:51:56.802Z,44.14
2023-05-01T16:54:25.214Z,44.54
2023-05-01T16:56:53.285Z,44.94
2023-05-01T16:59:25.556Z,45.83
2023-05-01T17:01:53.674Z,45.92
2023-05-01T17:04:22.791Z,46.43
2023-05-01T17:06:51.946Z,47.04
2023-05-01T17:09:20.417Z,47.02
2023-05-01T17:11:48.507Z,46.99
2023-05-01T17:14:16.843Z,46.91
2023-05-01T17:16:49.412Z,46.94
2023-05-01T17:19:18.576Z,46.91
2023-05-01T17:21:46.949Z,46.84
2023-05-01T17:24:15.063Z,47.02
2023-05-01T17:26:43.369Z,46.90
2023-05-01T17:29:11.472Z,47.69
2023-05-01T17:31:40.043Z,47.73
2023-05-01T17:34:12.962Z,48.30
2023-05-01T17:36:41.174Z,48.24
2023-05-01T17:39:09.430Z,48.68
2023-05-01T17:41:37.693Z,49.01
2023-05-01T17:44:06.442Z,48.65
2023-05-01T17:46:39.013Z,48.67
2023-05-01T17:49:07.556Z,48.64
2023-05-01T17:51:37.448Z,48.45
2023-05-01T17:54:06.220Z,48.33
2023-05-01T17:56:34.616Z,47.96
2023-05-01T17:59:02.713Z,48.04
2023-05-01T18:01:32.145Z,48.36
2023-05-01T18:04:00.575Z,48.54
2023-05-01T18:06:28.929Z,48.58
2023-05-01T18:08:58.845Z,48.43
2023-05-01T18:11:27.814Z,48.74
2023-05-01T18:13:56.115Z,49.05
2023-05-01T18:16:24.937Z,49.25
2023-05-01T18:18:53.201Z,49.36
2023-05-01T18:21:21.472Z,49.81
2023-05-01T18:23:50.244Z,49.79
2023-05-01T18:26:19.976Z,49.81
2023-05-01T18:28:48.847Z,49.62
2023-05-01T18:31:17.285Z,49.72
2023-05-01T18:33:45.705Z,49.76
2023-05-01T18:36:14.066Z,50.01
2023-05-01T18:38:42.128Z,50.17
2023-05-01T18:41:10.410Z,50.26
2023-05-01T18:43:40.056Z,49.87
2023-05-01T18:46:08.130Z,50.16
2023-05-01T18:48:36.187Z,50.43
2023-05-01T18:51:08.495Z,50.24
2023-05-01T18:53:37.879Z,50.12
2023-05-01T18:56:06.530Z,50.15
2023-05-01T18:58:34.852Z,49.96
2023-05-01T19:01:05.411Z,49.97
2023-05-01T19:03:33.542Z,50.05
2023-05-01T19:06:01.902Z,49.98
2023-05-01T19:08:31.880Z,49.65
2023-05-01T19:10:59.878Z,49.62
2023-05-01T19:13:27.995Z,49.46
2023-05-01T19:15:56.013Z,49.33
2023-05-01T19:18:25.924Z,49.54
2023-05-01T19:20:54.042Z,49.33
2023-05-01T19:23:22.217Z,49.33
2023-05-01T19:25:50.899Z,49.13
2023-05-01T19:28:18.992Z,49.29
2023-05-01T19:30:47.126Z,49.44
2023-05-01T19:33:16.125Z,49.52
2023-05-01T19:35:45.742Z,49.58
2023-05-01T19:38:14.114Z,49.45
2023-05-01T19:40:42.694Z,49.56
2023-05-01T19:43:10.850Z,49.44
2023-05-01T19:45:39.043Z,49.58
2023-05-01T19:48:07.970Z,49.56
2023-05-01T19:50:36.602Z,49.83
2023-05-01T19:53:06.663Z,49.74
2023-05-01T19:55:34.785Z,49.68
2023-05-01T19:58:04.992Z,49.91
2023-05-01T20:00:33.179Z,49.74
2023-05-01T20:03:01.436Z,49.90
2023-05-01T20:05:31.847Z,50.07
2023-05-01T20:08:01.217Z,50.28
2023-05-01T20:10:31.208Z,50.11
2023-05-01T20:13:00.062Z,50.00
2023-05-01T20:15:28.571Z,50.01
2023-05-01T20:17:57.620Z,50.23
2023-05-01T20:20:25.793Z,50.47
2023-05-01T20:22:54.234Z,50.45
2023-05-01T20:25:22.543Z,50.55
2023-05-01T20:27:52.152Z,50.77
2023-05-01T20:30:20.402Z,50.79
2023-05-01T20:32:48.950Z,50.88
2023-05-01T20:35:17.168Z,50.87
2023-05-01T20:37:45.497Z,51.20
2023-05-01T20:40:17.074Z,51.10
2023-05-01T20:42:46.469Z,51.02
2023-05-01T20:45:16.277Z,50.87
2023-05-01T20:47:45.097Z,50.83
2023-05-01T20:50:13.509Z,50.94
2023-05-01T20:52:41.856Z,51.03
2023-05-01T20:55:11.048Z,51.10
2023-05-01T20:57:39.597Z,51.15
2023-05-01T21:00:09.099Z,51.27
2023-05-01T21:02:40.396Z,51.45
2023-05-01T21:05:10.381Z,51.53
2023-05-01T21:07:39.047Z,51.73
2023-05-01T21:10:08.505Z,51.55
2023-05-01T21:12:36.983Z,51.73
2023-05-01T21:15:05.720Z,51.79
2023-05-01T21:17:36.076Z,52.06
2023-05-01T21:20:12.458Z,52.22
2023-05-01T21:22:42.105Z,52.14
2023-05-01T21:25:11.235Z,52.13
2023-05-01T21:27:42.995Z,52.21
2023-05-01T21:30:16.247Z,52.09
2023-05-01T21:32:45.144Z,51.97
2023-05-01T21:35:17.959Z,52.15
2023-05-01T21:37:47.829Z,52.14
2023-05-01T21:40:16.620Z,51.95
2023-05-01T21:42:44.752Z,51.95
2023-05-01T21:45:14.835Z,52.21
2023-05-01T21:47:45.241Z,51.95
2023-05-01T21:50:16.626Z,52.01
2023-05-01T21:52:46.476Z,52.00
2023-05-01T21:55:19.154Z,51.54
2023-05-01T21:57:47.595Z,51.97
2023-05-01T22:00:15.918Z,52.00
2023-05-01T22:02:45.818Z,51.95
2023-05-01T22:05:18.056Z,51.90
2023-05-01T22:07:47.366Z,52.14
2023-05-01T22:10:18.261Z,52.31
2023-05-01T22:12:48.885Z,52.10
2023-05-01T22:15:17.850Z,52.44
2023-05-01T22:17:46.517Z,52.09
2023-05-01T22:20:16.406Z,52.20
2023-05-01T22:22:44.425Z,52.20
2023-05-01T22:25:13.215Z,52.20
2023-05-01T22:27:41.934Z,52.13
2023-05-01T22:30:11.316Z,51.99
2023-05-01T22:32:39.922Z,52.02
2023-05-01T22:35:09.157Z,51.79
2023-05-01T22:37:38.661Z,52.00
2023-05-01T22:40:08.458Z,52.14
2023-05-01T22:42:36.502Z,52.08
2023-05-01T22:45:04.814Z,52.13
2023-05-01T22:47:33.117Z,52.06
2023-05-01T22:50:01.590Z,51.92
2023-05-01T22:52:29.986Z,52.06
2023-05-01T22:55:00.127Z,51.84
2023-05-01T22:57:28.804Z,52.03
2023-05-01T22:59:57.346Z,52.43
2023-05-01T23:02:25.763Z,52.37
2023-05-01T23:04:54.102Z,51.99
2023-05-01T23:07:22.254Z,51.98
2023-05-01T23:09:50.276Z,51.98
2023-05-01T23:12:23.298Z,51.97
2023-05-01T23:14:51.964Z,52.11
2023-05-01T23:17:20.315Z,52.09
2023-05-01T23:19:48.533Z,52.14
2023-05-01T23:22:16.859Z,52.18
2023-05-01T23:24:48.566Z,51.97
2023-05-01T23:27:18.652Z,51.97
2023-05-01T23:29:56.574Z,51.89
2023-05-01T23:32:27.972Z,51.98
2023-05-01T23:34:57.619Z,51.80
2023-05-01T23:37:25.745Z,52.05
2023-05-01T23:39:53.805Z,51.87
2023-05-01T23:42:23.156Z,52.14
2023-05-01T23:44:53.201Z,51.99
2023-05-01T23:47:21.837Z,52.27
2023-05-01T23:49:50.699Z,52.02
2023-05-01T23:52:19.751Z,52.12
2023-05-01T23:54:48.100Z,51.99
2023-05-01T23:57:16.460Z,52.42
2023-05-01T23:59:44.887Z,52.05
